Time;durP1;ratioP1;P1;durP2;ratioP2;P2;SDS_P1;SDS_P2;PMS_P1;PMS_P2;Temp;Humidity;BMP_temperature;BMP_pressure;BME280_temperature;BME280_humidity;BME280_pressure;Samples;Min_cycle;Max_cycle;Signal;HPM_P1;HPM_P2
2021/03/31 00:00:21;;;;;;;7.43;5.50;;;21.70;50.40;;;;;;4941054;28;20198;-78
2021/03/31 00:02:50;;;;;;;7.10;5.73;;;21.70;50.30;;;;;;4956359;28;20625;-79
2021/03/31 00:05:17;;;;;;;8.47;5.97;;;21.70;50.30;;;;;;4944880;28;20368;-79
2021/03/31 00:07:43;;;;;;;7.23;5.63;;;21.70;50.40;;;;;;4944130;28;20257;-79
2021/03/31 00:10:27;;;;;;;7.77;5.67;;;21.70;50.30;;;;;;4943355;28;20204;-80
2021/03/31 00:12:54;;;;;;;8.37;6.23;;;21.60;50.30;;;;;;4943865;28;20575;-80
2021/03/31 00:15:21;;;;;;;10.53;5.87;;;21.60;50.30;;;;;;4938455;28;20228;-79
2021/03/31 00:18:02;;;;;;;7.93;6.50;;;21.60;50.20;;;;;;4944213;29;20292;-80
2021/03/31 00:20:35;;;;;;;9.53;6.33;;;21.60;50.20;;;;;;4945484;28;20689;-80
2021/03/31 00:23:06;;;;;;;9.27;6.33;;;21.60;50.20;;;;;;4942949;29;20205;-80
2021/03/31 00:25:32;;;;;;;8.53;6.13;;;21.60;50.10;;;;;;4946687;28;20214;-80
2021/03/31 00:27:59;;;;;;;9.40;6.53;;;21.60;50.20;;;;;;4944046;29;20193;-80
2021/03/31 00:30:26;;;;;;;8.40;6.23;;;21.60;50.10;;;;;;4943910;28;20201;-80
2021/03/31 00:32:52;;;;;;;9.87;7.10;;;21.50;50.10;;;;;;4940441;28;20198;-80
2021/03/31 00:35:19;;;;;;;8.77;6.73;;;21.60;50.10;;;;;;4937831;29;20187;-79
2021/03/31 00:37:45;;;;;;;7.87;6.70;;;21.60;50.10;;;;;;4938336;29;20309;-80
2021/03/31 00:40:15;;;;;;;9.13;6.47;;;21.60;50.10;;;;;;4946926;28;20837;-80
2021/03/31 00:42:43;;;;;;;11.30;6.17;;;21.50;50.10;;;;;;4945565;29;20205;-80
2021/03/31 00:45:10;;;;;;;12.10;7.00;;;21.50;50.10;;;;;;4946157;28;20197;-79
2021/03/31 00:47:37;;;;;;;9.93;6.27;;;21.50;50.00;;;;;;4938986;28;20198;-80
2021/03/31 00:50:07;;;;;;;10.17;6.90;;;21.50;50.00;;;;;;4943138;28;20400;-80
2021/03/31 00:52:34;;;;;;;7.43;6.70;;;21.50;50.00;;;;;;4939336;29;20213;-78
2021/03/31 00:55:05;;;;;;;10.23;7.17;;;21.50;50.00;;;;;;4943944;29;20713;-78
2021/03/31 00:57:32;;;;;;;8.77;6.80;;;21.40;49.90;;;;;;4944291;28;20242;-78
2021/03/31 00:59:58;;;;;;;9.07;6.83;;;21.40;49.90;;;;;;4939530;29;20206;-79
2021/03/31 01:02:24;;;;;;;8.90;6.70;;;21.40;50.00;;;;;;4946361;29;20714;-78
2021/03/31 01:04:50;;;;;;;9.37;7.17;;;21.40;49.90;;;;;;4942611;28;20202;-79
2021/03/31 01:07:17;;;;;;;8.90;7.00;;;21.40;49.90;;;;;;4946547;28;20236;-79
2021/03/31 01:09:43;;;;;;;10.13;7.73;;;21.40;49.80;;;;;;4946207;28;20614;-79
2021/03/31 01:12:12;;;;;;;10.17;6.77;;;21.40;49.90;;;;;;4942719;28;20645;-79
2021/03/31 01:15:00;;;;;;;11.60;7.40;;;21.30;49.80;;;;;;4944476;29;20847;-77
2021/03/31 01:17:33;;;;;;;8.53;6.63;;;21.30;49.80;;;;;;4942374;29;20213;-79
2021/03/31 01:20:19;;;;;;;9.67;7.17;;;21.30;49.70;;;;;;4943461;28;20197;-79
2021/03/31 01:23:23;;;;;;;12.37;7.13;;;21.30;49.80;;;;;;4945437;29;20189;-78
2021/03/31 01:25:53;;;;;;;10.00;7.20;;;21.30;49.80;;;;;;4944823;28;20205;-78
2021/03/31 01:28:57;;;;;;;11.20;7.23;;;21.30;49.80;;;;;;4942574;28;20240;-78
2021/03/31 01:31:43;;;;;;;8.90;7.13;;;21.30;49.80;;;;;;4944394;29;20667;-78
2021/03/31 01:34:29;;;;;;;11.40;7.13;;;21.30;49.80;;;;;;4941101;29;20213;-79
2021/03/31 01:36:57;;;;;;;8.70;6.67;;;21.30;49.70;;;;;;4945268;28;20225;-80
2021/03/31 01:39:24;;;;;;;10.20;7.50;;;21.30;49.70;;;;;;4945919;29;20229;-79
2021/03/31 01:41:54;;;;;;;9.83;7.23;;;21.30;49.70;;;;;;4943961;29;20204;-79
2021/03/31 01:44:22;;;;;;;10.83;8.03;;;21.20;49.70;;;;;;4942158;29;20194;-79
2021/03/31 01:46:53;;;;;;;11.27;7.30;;;21.20;49.70;;;;;;4944163;28;20213;-79
2021/03/31 01:49:22;;;;;;;8.80;7.23;;;21.30;49.70;;;;;;4944642;28;20686;-79
2021/03/31 01:51:53;;;;;;;11.73;8.00;;;21.20;49.60;;;;;;4945238;29;20212;-79
2021/03/31 01:54:20;;;;;;;9.47;7.83;;;21.20;49.70;;;;;;4946078;29;20202;-80
2021/03/31 01:56:47;;;;;;;11.23;7.43;;;21.30;49.60;;;;;;4946480;28;20193;-80
2021/03/31 01:59:17;;;;;;;10.13;7.73;;;21.20;49.70;;;;;;4946662;28;20252;-80
2021/03/31 02:01:46;;;;;;;10.33;7.17;;;21.20;49.70;;;;;;4942283;28;20856;-79
2021/03/31 02:04:15;;;;;;;12.57;8.17;;;21.10;49.60;;;;;;4940270;28;20205;-79
2021/03/31 02:06:42;;;;;;;12.53;8.33;;;21.20;50.30;;;;;;4945031;28;20234;-79
2021/03/31 02:09:11;;;;;;;10.00;7.40;;;21.20;49.60;;;;;;4945826;28;20190;-80
2021/03/31 02:11:40;;;;;;;10.33;7.97;;;21.20;49.70;;;;;;4959201;28;20206;-79
2021/03/31 02:14:07;;;;;;;11.83;8.90;;;21.20;49.60;;;;;;4945495;29;20222;-79
2021/03/31 02:16:35;;;;;;;11.17;8.13;;;21.20;49.60;;;;;;4945835;28;20194;-79
2021/03/31 02:19:02;;;;;;;12.93;7.80;;;21.10;49.50;;;;;;4945247;28;20217;-79
2021/03/31 02:21:30;;;;;;;10.97;7.43;;;21.10;49.50;;;;;;4950684;28;20241;-80
2021/03/31 02:23:57;;;;;;;11.67;8.13;;;21.10;49.50;;;;;;4945755;28;20205;-80
2021/03/31 02:26:25;;;;;;;12.53;8.33;;;21.10;49.50;;;;;;4941465;29;20289;-80
2021/03/31 02:28:52;;;;;;;10.40;8.23;;;21.10;49.50;;;;;;4953987;28;20194;-80
2021/03/31 02:31:21;;;;;;;12.17;7.70;;;21.10;49.70;;;;;;4942684;28;20682;-80
2021/03/31 02:33:48;;;;;;;12.93;8.50;;;21.10;49.40;;;;;;4946788;29;20190;-79
2021/03/31 02:36:20;;;;;;;10.77;7.83;;;21.10;49.40;;;;;;4949244;28;20213;-79
2021/03/31 02:38:47;;;;;;;12.87;7.87;;;21.10;49.40;;;;;;4961671;28;20232;-80
2021/03/31 02:41:20;;;;;;;11.50;8.10;;;21.10;49.40;;;;;;4946288;29;20202;-79
2021/03/31 02:43:52;;;;;;;10.07;8.03;;;21.10;49.40;;;;;;4946714;29;20662;-79
2021/03/31 02:46:21;;;;;;;13.10;8.07;;;21.00;49.40;;;;;;4946538;29;20206;-80
2021/03/31 02:48:49;;;;;;;10.90;8.33;;;21.00;49.30;;;;;;4950959;28;20214;-80
2021/03/31 02:51:19;;;;;;;10.97;7.50;;;21.00;49.30;;;;;;4948339;28;20190;-79
2021/03/31 02:53:47;;;;;;;9.43;7.10;;;21.00;49.30;;;;;;4944218;29;20205;-79
2021/03/31 02:56:15;;;;;;;10.30;7.60;;;21.00;49.30;;;;;;4946767;28;20193;-79
2021/03/31 02:58:43;;;;;;;13.27;8.13;;;21.00;49.30;;;;;;4946388;29;20214;-79
2021/03/31 03:01:09;;;;;;;11.77;7.97;;;21.00;49.30;;;;;;4942437;28;20209;-79
2021/03/31 03:03:37;;;;;;;11.87;8.37;;;21.00;49.30;;;;;;4947830;28;20242;-79
2021/03/31 03:06:05;;;;;;;11.30;7.93;;;21.00;49.20;;;;;;4938909;29;20261;-79
2021/03/31 03:08:32;;;;;;;10.57;7.83;;;21.00;49.20;;;;;;4944996;28;20628;-79
2021/03/31 03:11:00;;;;;;;10.93;7.03;;;20.90;49.90;;;;;;4948424;29;20202;-79
2021/03/31 03:13:29;;;;;;;9.53;7.33;;;20.90;49.20;;;;;;4942633;29;20204;-78
2021/03/31 03:16:00;;;;;;;13.37;7.60;;;20.90;49.10;;;;;;4942040;29;20194;-79
2021/03/31 03:18:26;;;;;;;12.00;6.97;;;20.90;49.20;;;;;;4945416;28;20762;-79
2021/03/31 03:20:53;;;;;;;8.80;7.33;;;20.90;49.20;;;;;;4946135;28;20334;-78
2021/03/31 03:23:20;;;;;;;10.33;7.57;;;20.90;49.30;;;;;;4946243;29;20206;-80
2021/03/31 03:25:55;;;;;;;12.87;7.10;;;20.90;49.20;;;;;;4946868;28;20737;-79
2021/03/31 03:28:23;;;;;;;10.93;7.63;;;20.90;49.30;;;;;;4943927;28;20206;-80
2021/03/31 03:30:52;;;;;;;9.93;7.30;;;20.90;49.20;;;;;;4940399;28;20194;-80
2021/03/31 03:33:19;;;;;;;9.80;7.13;;;20.90;49.20;;;;;;4946615;28;20846;-80
2021/03/31 03:35:46;;;;;;;9.60;7.30;;;20.90;49.20;;;;;;4946475;29;20243;-79
2021/03/31 03:38:14;;;;;;;9.37;7.77;;;20.90;49.10;;;;;;4948790;29;20213;-79
2021/03/31 03:40:45;;;;;;;9.10;6.90;;;20.90;49.10;;;;;;4946637;28;20980;-79
2021/03/31 03:43:16;;;;;;;11.67;7.27;;;20.80;49.00;;;;;;4946106;28;20202;-79
2021/03/31 03:45:43;;;;;;;7.70;6.47;;;20.80;49.10;;;;;;4945881;29;20205;-79
2021/03/31 03:48:11;;;;;;;12.17;7.07;;;20.80;49.10;;;;;;4946905;28;20201;-78
2021/03/31 03:50:38;;;;;;;10.33;6.97;;;20.80;49.10;;;;;;4948425;29;20202;-78
2021/03/31 03:53:04;;;;;;;8.27;6.80;;;20.80;49.10;;;;;;4945681;28;20565;-78
2021/03/31 03:55:33;;;;;;;8.83;6.63;;;20.80;49.10;;;;;;4960842;28;20194;-78
2021/03/31 03:58:08;;;;;;;10.13;6.67;;;20.80;49.10;;;;;;4944775;29;22350;-79
2021/03/31 04:00:35;;;;;;;8.80;7.03;;;20.70;49.10;;;;;;4939854;29;20571;-79
2021/03/31 04:03:03;;;;;;;13.23;6.60;;;20.80;49.20;;;;;;4948414;28;20205;-78
2021/03/31 04:05:29;;;;;;;12.13;6.67;;;20.80;49.10;;;;;;4946692;29;20225;-79
2021/03/31 04:07:55;;;;;;;9.30;6.73;;;20.70;49.10;;;;;;4947893;29;20210;-79
2021/03/31 04:10:24;;;;;;;9.67;6.80;;;20.70;49.10;;;;;;4947727;28;20205;-80
2021/03/31 04:12:52;;;;;;;11.47;6.53;;;20.80;49.10;;;;;;4946031;29;20711;-79
2021/03/31 04:15:21;;;;;;;10.50;6.63;;;20.70;49.00;;;;;;4941289;28;20260;-79
2021/03/31 04:17:49;;;;;;;9.60;6.80;;;20.70;49.00;;;;;;4942687;28;20205;-80
2021/03/31 04:20:23;;;;;;;9.03;6.53;;;20.70;49.00;;;;;;4941434;29;20227;-79
2021/03/31 04:22:50;;;;;;;9.97;6.97;;;20.70;49.00;;;;;;4946642;28;20614;-79
2021/03/31 04:25:21;;;;;;;10.40;6.67;;;20.70;49.00;;;;;;4946121;28;20194;-80
2021/03/31 04:27:51;;;;;;;7.33;6.43;;;20.70;49.00;;;;;;4946986;28;20201;-79
2021/03/31 04:30:19;;;;;;;10.30;6.70;;;20.70;49.00;;;;;;4947581;28;20190;-79
2021/03/31 04:32:50;;;;;;;8.43;6.63;;;20.70;48.90;;;;;;4946434;29;20282;-79
2021/03/31 04:35:18;;;;;;;8.80;7.03;;;20.60;48.90;;;;;;4959317;28;20486;-79
2021/03/31 04:37:45;;;;;;;9.80;6.83;;;20.70;48.80;;;;;;4947152;29;20213;-79
2021/03/31 04:40:13;;;;;;;7.93;6.63;;;20.70;48.90;;;;;;4945762;28;20201;-79
2021/03/31 04:42:41;;;;;;;8.87;6.80;;;20.70;48.80;;;;;;4946391;28;20220;-79
2021/03/31 04:45:10;;;;;;;9.67;6.90;;;20.60;48.80;;;;;;4944117;29;20217;-79
2021/03/31 04:47:37;;;;;;;10.40;7.40;;;20.70;48.80;;;;;;4946271;28;20193;-79
2021/03/31 04:50:06;;;;;;;9.20;6.53;;;20.70;48.80;;;;;;4943064;28;20237;-80
2021/03/31 04:52:32;;;;;;;8.93;7.00;;;20.60;48.80;;;;;;4940465;28;20674;-80
2021/03/31 04:54:59;;;;;;;8.63;6.70;;;20.60;48.70;;;;;;4944461;28;20210;-79
2021/03/31 04:57:25;;;;;;;9.73;7.13;;;20.60;48.70;;;;;;4959410;28;20670;-79
2021/03/31 04:59:51;;;;;;;11.00;7.20;;;20.60;48.80;;;;;;4946401;28;20221;-78
2021/03/31 05:02:18;;;;;;;11.43;7.27;;;20.60;49.40;;;;;;4947008;28;20282;-78
2021/03/31 05:04:44;;;;;;;11.70;7.57;;;20.60;48.80;;;;;;4941429;28;20210;-78
2021/03/31 05:07:11;;;;;;;9.40;6.83;;;20.60;48.70;;;;;;4944892;29;20269;-78
2021/03/31 05:09:38;;;;;;;10.50;7.07;;;20.50;48.60;;;;;;4946087;28;20746;-79
2021/03/31 05:12:06;;;;;;;8.17;7.07;;;20.50;48.60;;;;;;4942197;28;20216;-79
2021/03/31 05:14:32;;;;;;;10.90;7.40;;;20.60;48.70;;;;;;4942636;29;20229;-79
2021/03/31 05:17:03;;;;;;;14.57;7.87;;;20.50;48.60;;;;;;4946751;28;20583;-80
2021/03/31 05:19:29;;;;;;;9.33;6.80;;;20.50;48.70;;;;;;4937101;29;20304;-80
2021/03/31 05:21:55;;;;;;;11.40;7.77;;;20.50;48.60;;;;;;4946667;28;20566;-80
2021/03/31 05:24:22;;;;;;;11.90;8.23;;;20.50;48.60;;;;;;4941209;28;20210;-77
2021/03/31 05:26:48;;;;;;;11.37;7.77;;;20.50;48.50;;;;;;4944919;28;20229;-80
2021/03/31 05:29:14;;;;;;;13.83;7.57;;;20.50;48.50;;;;;;4943860;29;20202;-76
2021/03/31 05:31:40;;;;;;;10.37;7.47;;;20.50;48.50;;;;;;4944415;28;20221;-77
2021/03/31 05:34:06;;;;;;;11.03;6.73;;;20.50;48.50;;;;;;4945278;29;20198;-77
2021/03/31 05:36:33;;;;;;;16.27;8.10;;;20.50;48.50;;;;;;4942715;28;20666;-78
2021/03/31 05:38:59;;;;;;;10.50;8.33;;;20.50;48.50;;;;;;4945522;28;20222;-79
2021/03/31 05:41:26;;;;;;;10.63;7.53;;;20.50;48.50;;;;;;4939345;29;20202;-78
2021/03/31 05:43:52;;;;;;;10.57;7.60;;;20.40;48.50;;;;;;4941676;28;20224;-79
2021/03/31 05:46:19;;;;;;;10.83;8.40;;;20.40;48.50;;;;;;4944095;29;20201;-78
2021/03/31 05:48:46;;;;;;;11.03;7.57;;;20.40;48.60;;;;;;4944391;29;20198;-78
2021/03/31 05:51:13;;;;;;;13.40;7.87;;;20.50;48.80;;;;;;4945090;28;20196;-79
2021/03/31 05:53:40;;;;;;;11.20;8.17;;;20.40;48.80;;;;;;4936774;28;20210;-78
2021/03/31 05:56:08;;;;;;;13.67;8.13;;;20.40;48.90;;;;;;4941547;28;20213;-78
2021/03/31 05:58:36;;;;;;;12.67;7.67;;;20.50;49.10;;;;;;4944009;29;20241;-77
2021/03/31 06:01:03;;;;;;;12.23;8.17;;;20.40;49.20;;;;;;4942105;29;20226;-77
2021/03/31 06:03:31;;;;;;;15.43;8.43;;;20.40;49.30;;;;;;4944475;28;20210;-77
2021/03/31 06:05:59;;;;;;;15.43;8.70;;;20.40;49.30;;;;;;4941205;28;20260;-80
2021/03/31 06:08:30;;;;;;;13.17;7.87;;;20.40;49.50;;;;;;4947827;28;20216;-79
2021/03/31 06:10:58;;;;;;;16.83;7.80;;;20.40;49.60;;;;;;4948826;29;20193;-80
2021/03/31 06:13:26;;;;;;;16.77;8.07;;;20.40;49.80;;;;;;4948025;28;20216;-80
2021/03/31 06:15:52;;;;;;;11.90;7.67;;;20.40;49.60;;;;;;4946857;28;20312;-79
2021/03/31 06:18:19;;;;;;;14.53;8.10;;;20.40;49.60;;;;;;4943765;28;20224;-79
2021/03/31 06:20:59;;;;;;;14.00;8.80;;;20.50;49.40;;;;;;4948562;28;20667;-83
2021/03/31 06:26:29;;;;;;;12.17;8.03;;;20.60;50.00;;;;;;4949608;28;20560;-81
2021/03/31 06:29:00;;;;;;;13.20;7.93;;;20.70;49.40;;;;;;4956182;28;20213;-79
2021/03/31 06:31:46;;;;;;;12.23;7.87;;;20.70;49.50;;;;;;4945211;29;20198;-79
2021/03/31 06:34:18;;;;;;;17.90;8.03;;;20.80;49.70;;;;;;4957739;28;20232;-81
2021/03/31 06:36:51;;;;;;;14.13;7.37;;;20.80;49.70;;;;;;4949994;28;20204;-82
2021/03/31 06:39:33;;;;;;;12.60;7.77;;;20.90;49.70;;;;;;4933751;28;20232;-78
2021/03/31 06:42:14;;;;;;;11.83;7.47;;;20.90;49.40;;;;;;4946038;28;20196;-79
2021/03/31 06:47:18;;;;;;;15.97;6.73;;;20.90;49.20;;;;;;4946729;29;20202;-83
2021/03/31 06:49:47;;;;;;;11.50;6.67;;;20.90;49.10;;;;;;4962914;28;20201;-78
2021/03/31 06:52:13;;;;;;;25.30;8.47;;;20.90;49.10;;;;;;4947558;28;20190;-78
2021/03/31 06:54:43;;;;;;;33.70;10.53;;;20.90;50.00;;;;;;4946095;28;20207;-78
2021/03/31 06:57:11;;;;;;;23.23;9.13;;;21.00;50.40;;;;;;4944969;28;20665;-78
2021/03/31 06:59:38;;;;;;;22.33;8.73;;;20.90;49.80;;;;;;4944680;28;20334;-77
2021/03/31 07:02:06;;;;;;;27.43;10.87;;;21.00;50.00;;;;;;4941936;28;20190;-80
2021/03/31 07:04:34;;;;;;;23.83;9.63;;;21.00;50.70;;;;;;4944709;28;20290;-81
2021/03/31 07:07:10;;;;;;;21.77;9.50;;;21.10;50.80;;;;;;4942177;28;20245;-79
2021/03/31 07:09:38;;;;;;;25.53;10.40;;;21.20;50.70;;;;;;4945106;28;20229;-81
2021/03/31 07:12:22;;;;;;;19.10;8.67;;;21.30;50.40;;;;;;4943019;28;20618;-81
2021/03/31 07:14:50;;;;;;;17.13;9.07;;;21.30;50.20;;;;;;4948241;28;20370;-81
2021/03/31 07:17:24;;;;;;;17.83;8.43;;;21.40;49.90;;;;;;4955675;28;20202;-82
2021/03/31 07:20:06;;;;;;;18.27;8.67;;;21.40;49.90;;;;;;4942887;28;20225;-81
2021/03/31 07:22:33;;;;;;;14.77;7.87;;;21.40;49.80;;;;;;4945456;28;20248;-79
2021/03/31 07:25:07;;;;;;;14.27;7.73;;;21.40;49.70;;;;;;4946272;29;20209;-83
2021/03/31 07:27:34;;;;;;;18.37;7.40;;;21.50;49.60;;;;;;4937531;28;20301;-81
2021/03/31 07:30:12;;;;;;;17.63;7.43;;;21.60;49.60;;;;;;4947255;28;20296;-81
2021/03/31 07:33:28;;;;;;;13.67;7.03;;;21.60;49.40;;;;;;4947271;29;20267;-80
2021/03/31 07:35:57;;;;;;;15.30;6.67;;;21.60;49.20;;;;;;4887152;29;20643;-81
2021/03/31 07:38:26;;;;;;;11.50;6.80;;;21.60;49.00;;;;;;4935340;28;20233;-82
2021/03/31 07:40:53;;;;;;;15.53;6.73;;;21.60;49.00;;;;;;4939948;28;20209;-79
2021/03/31 07:43:27;;;;;;;13.33;6.43;;;21.70;48.80;;;;;;4941658;28;20228;-77
2021/03/31 07:46:12;;;;;;;13.93;6.73;;;21.80;48.60;;;;;;4941891;28;20205;-79
2021/03/31 07:48:40;;;;;;;10.73;6.00;;;21.80;48.80;;;;;;4946828;28;20209;-80
2021/03/31 07:51:27;;;;;;;11.10;5.87;;;21.80;48.40;;;;;;4944236;28;20292;-81
2021/03/31 07:53:57;;;;;;;8.90;6.30;;;21.80;48.50;;;;;;4939008;28;20204;-80
2021/03/31 07:56:30;;;;;;;10.87;5.90;;;21.80;48.20;;;;;;4940018;28;20249;-80
2021/03/31 07:59:02;;;;;;;9.37;5.90;;;21.80;48.10;;;;;;4943546;28;20228;-80
2021/03/31 08:01:33;;;;;;;11.27;5.70;;;21.80;48.20;;;;;;4945784;28;20886;-80
2021/03/31 08:04:02;;;;;;;10.50;4.93;;;21.90;48.20;;;;;;4958310;28;20206;-78
2021/03/31 08:06:30;;;;;;;8.87;5.53;;;21.90;47.80;;;;;;4956130;28;20229;-78
2021/03/31 08:09:08;;;;;;;12.17;6.40;;;22.00;48.00;;;;;;4933940;28;20205;-75
2021/03/31 08:11:47;;;;;;;9.57;5.43;;;21.90;46.90;;;;;;4944383;28;20215;-76
2021/03/31 08:14:17;;;;;;;8.40;5.40;;;21.80;46.50;;;;;;4943618;28;20366;-76
2021/03/31 08:16:48;;;;;;;8.40;5.37;;;21.70;46.20;;;;;;4944202;28;20202;-77
2021/03/31 08:19:52;;;;;;;6.73;5.20;;;21.70;46.10;;;;;;4947080;28;20229;-78
2021/03/31 08:22:28;;;;;;;9.47;5.13;;;21.70;46.20;;;;;;4924256;28;20213;-79
2021/03/31 08:24:57;;;;;;;6.90;4.73;;;21.70;47.60;;;;;;4934560;28;20738;-76
2021/03/31 08:27:24;;;;;;;8.30;5.27;;;21.90;46.90;;;;;;4941600;28;20213;-76
2021/03/31 08:29:54;;;;;;;8.37;5.30;;;21.90;47.20;;;;;;4932398;28;20284;-76
2021/03/31 08:32:23;;;;;;;8.07;5.43;;;22.00;47.90;;;;;;4943361;28;20665;-76
2021/03/31 08:35:05;;;;;;;5.87;5.13;;;22.00;47.50;;;;;;4944037;28;20686;-77
2021/03/31 08:37:31;;;;;;;9.23;5.57;;;22.10;47.60;;;;;;4942964;28;20664;-78
2021/03/31 08:40:01;;;;;;;6.77;5.33;;;22.10;47.60;;;;;;4941065;28;20224;-77
2021/03/31 08:42:27;;;;;;;9.30;5.73;;;22.10;47.20;;;;;;4939487;28;20208;-76
2021/03/31 08:45:02;;;;;;;5.80;4.73;;;22.20;47.40;;;;;;4938806;28;20205;-78
2021/03/31 08:47:34;;;;;;;7.27;5.07;;;22.20;47.30;;;;;;4937258;28;20650;-79
2021/03/31 08:50:10;;;;;;;9.53;4.90;;;22.20;47.60;;;;;;4942637;28;20197;-78
2021/03/31 08:52:38;;;;;;;9.47;5.00;;;22.30;47.30;;;;;;4941435;28;20724;-78
2021/03/31 08:55:09;;;;;;;15.40;5.23;;;22.20;46.30;;;;;;4940668;28;20281;-79
2021/03/31 08:57:36;;;;;;;10.63;4.70;;;22.10;45.90;;;;;;4943400;28;20198;-79
2021/03/31 09:00:06;;;;;;;8.03;4.47;;;22.00;46.00;;;;;;4947429;28;20328;-79
2021/03/31 09:02:41;;;;;;;7.67;4.80;;;22.00;46.60;;;;;;4939444;28;20217;-78
2021/03/31 09:05:09;;;;;;;6.93;5.00;;;22.10;46.70;;;;;;4940771;28;20349;-79
2021/03/31 09:07:36;;;;;;;10.07;5.00;;;22.20;47.10;;;;;;4938988;28;20241;-80
2021/03/31 09:10:09;;;;;;;7.00;4.60;;;22.20;46.90;;;;;;4938986;28;20210;-80
2021/03/31 09:12:36;;;;;;;5.87;4.17;;;22.30;47.00;;;;;;4938394;28;20235;-79
2021/03/31 09:15:03;;;;;;;7.63;4.03;;;22.40;47.50;;;;;;4945822;28;20186;-79
2021/03/31 09:17:32;;;;;;;7.83;4.57;;;22.40;47.40;;;;;;4941494;28;20280;-80
2021/03/31 09:20:06;;;;;;;8.23;4.10;;;22.50;47.10;;;;;;4944740;28;20233;-78
2021/03/31 09:22:34;;;;;;;8.43;4.90;;;22.50;47.30;;;;;;4940477;28;20217;-78
2021/03/31 09:25:01;;;;;;;5.33;4.30;;;22.60;46.50;;;;;;4942140;28;20205;-78
2021/03/31 09:27:47;;;;;;;6.07;3.93;;;22.70;47.10;;;;;;4940490;28;20583;-77
2021/03/31 09:30:16;;;;;;;9.60;4.30;;;22.80;46.80;;;;;;4941445;28;21106;-79
2021/03/31 09:33:07;;;;;;;12.40;4.20;;;22.80;47.00;;;;;;4944961;28;20228;-77
2021/03/31 09:35:34;;;;;;;6.63;3.90;;;22.90;47.00;;;;;;4938735;28;20198;-78
2021/03/31 09:38:06;;;;;;;7.63;4.27;;;22.90;47.10;;;;;;4939014;28;20681;-79
2021/03/31 09:40:38;;;;;;;7.13;4.00;;;22.90;46.90;;;;;;4940634;28;21006;-79
2021/03/31 09:43:08;;;;;;;6.20;4.07;;;23.00;46.60;;;;;;4940636;28;20201;-79
2021/03/31 09:45:35;;;;;;;6.33;4.07;;;23.00;47.00;;;;;;4947702;28;20209;-79
2021/03/31 09:48:03;;;;;;;7.47;4.30;;;23.10;47.30;;;;;;4939557;28;20205;-79
2021/03/31 09:50:33;;;;;;;5.43;3.80;;;23.10;46.90;;;;;;4939639;28;20209;-78
2021/03/31 09:53:04;;;;;;;9.37;3.77;;;23.20;47.20;;;;;;4940492;28;20198;-78
2021/03/31 09:55:31;;;;;;;9.47;3.53;;;23.30;47.90;;;;;;4938410;28;20197;-79
2021/03/31 09:58:01;;;;;;;7.70;3.80;;;23.20;47.70;;;;;;4945605;28;20208;-79
2021/03/31 10:00:28;;;;;;;5.87;3.40;;;23.30;47.70;;;;;;4947644;28;20229;-80
2021/03/31 10:02:55;;;;;;;6.37;4.00;;;23.30;47.20;;;;;;4944443;28;20206;-81
2021/03/31 10:05:26;;;;;;;4.53;3.30;;;23.40;47.30;;;;;;4943646;28;20678;-78
2021/03/31 10:08:00;;;;;;;5.57;4.07;;;23.40;47.30;;;;;;4942117;28;20241;-77
2021/03/31 10:10:58;;;;;;;4.57;3.63;;;23.40;47.10;;;;;;4931857;28;20240;-80
2021/03/31 10:13:34;;;;;;;5.50;3.27;;;23.40;47.40;;;;;;4945940;28;20205;-78
2021/03/31 10:16:04;;;;;;;4.97;3.57;;;23.50;47.60;;;;;;4948152;28;20616;-76
2021/03/31 10:18:34;;;;;;;4.77;3.60;;;23.40;47.70;;;;;;4946557;28;20205;-76
2021/03/31 10:21:04;;;;;;;6.03;3.77;;;23.50;47.70;;;;;;4945493;28;20253;-76
2021/03/31 10:23:36;;;;;;;6.27;3.77;;;23.50;47.80;;;;;;4948530;28;20225;-78
2021/03/31 10:26:21;;;;;;;5.73;4.40;;;23.50;47.70;;;;;;4943972;28;20249;-78
2021/03/31 10:29:01;;;;;;;5.23;3.57;;;23.50;47.40;;;;;;4945678;28;20232;-79
2021/03/31 10:31:48;;;;;;;5.07;3.77;;;23.40;47.40;;;;;;4944091;28;20210;-77
2021/03/31 10:34:18;;;;;;;5.67;3.83;;;23.50;47.70;;;;;;4944854;28;20232;-78
2021/03/31 10:50:26;;;;;;;9.80;5.53;;;23.50;46.80;;;;;;4945852;28;20210;-77
2021/03/31 10:52:56;;;;;;;10.63;5.17;;;23.60;46.70;;;;;;4941316;28;20194;-77
2021/03/31 10:55:22;;;;;;;7.43;5.33;;;23.60;46.40;;;;;;4943148;28;20216;-77
2021/03/31 10:57:48;;;;;;;9.23;5.40;;;23.60;46.10;;;;;;4939958;28;20421;-77
2021/03/31 11:00:15;;;;;;;8.07;5.60;;;23.60;46.30;;;;;;4944696;28;20233;-78
2021/03/31 11:02:41;;;;;;;10.80;5.90;;;23.60;46.80;;;;;;4942296;28;20194;-79
2021/03/31 11:05:09;;;;;;;9.50;5.30;;;23.60;46.90;;;;;;4934194;28;20213;-80
2021/03/31 11:07:35;;;;;;;11.20;6.03;;;23.70;47.90;;;;;;4938019;28;20290;-79
2021/03/31 11:10:03;;;;;;;10.53;6.00;;;23.70;46.30;;;;;;4940220;28;20192;-78
2021/03/31 11:12:43;;;;;;;7.73;5.87;;;23.70;45.70;;;;;;4941921;28;20198;-78
2021/03/31 11:15:11;;;;;;;9.33;4.90;;;23.80;45.50;;;;;;4942452;28;20202;-78
2021/03/31 11:25:58;;;;;;;8.10;4.37;;;24.10;48.00;;;;;;4922621;29;20218;-78
2021/03/31 11:28:25;;;;;;;8.00;4.37;;;24.20;47.30;;;;;;4938563;28;20225;-77
2021/03/31 11:30:53;;;;;;;10.07;4.50;;;24.20;47.80;;;;;;4942195;28;20211;-78
2021/03/31 11:33:25;;;;;;;10.63;5.03;;;24.30;48.10;;;;;;4942769;28;20193;-80
2021/03/31 11:35:52;;;;;;;9.07;4.23;;;24.30;46.60;;;;;;4941257;28;20205;-79
2021/03/31 11:38:19;;;;;;;9.10;5.17;;;24.40;46.30;;;;;;4940691;28;20678;-79
2021/03/31 11:40:46;;;;;;;8.30;5.57;;;24.40;45.50;;;;;;4939817;28;20240;-79
2021/03/31 11:43:15;;;;;;;8.77;4.83;;;24.50;43.70;;;;;;4932191;28;20214;-77
2021/03/31 11:45:42;;;;;;;11.73;5.20;;;24.60;45.10;;;;;;4933904;28;20213;-76
2021/03/31 11:48:08;;;;;;;8.63;4.73;;;24.60;46.00;;;;;;4944404;28;20742;-76
2021/03/31 11:50:35;;;;;;;7.60;5.27;;;24.60;46.00;;;;;;4946709;28;20209;-77
2021/03/31 11:53:02;;;;;;;10.70;5.60;;;24.70;41.60;;;;;;4935714;28;20216;-77
2021/03/31 11:55:29;;;;;;;7.43;5.00;;;24.80;42.00;;;;;;4943721;28;20213;-77
2021/03/31 11:57:55;;;;;;;7.57;4.63;;;24.80;45.80;;;;;;4945394;28;20201;-76
2021/03/31 12:00:22;;;;;;;6.93;4.20;;;24.80;45.40;;;;;;4939886;28;20713;-76
2021/03/31 12:02:48;;;;;;;6.10;3.97;;;24.90;46.00;;;;;;4943791;28;20208;-77
2021/03/31 12:05:17;;;;;;;13.40;4.53;;;24.90;45.40;;;;;;4939407;28;20237;-75
2021/03/31 12:07:43;;;;;;;6.20;4.00;;;24.90;47.30;;;;;;4937848;28;20233;-78
2021/03/31 12:10:10;;;;;;;8.17;4.23;;;25.00;46.80;;;;;;4940486;28;20209;-77
2021/03/31 12:12:40;;;;;;;9.47;4.23;;;25.00;47.40;;;;;;4940495;28;20596;-79
2021/03/31 12:15:12;;;;;;;9.30;4.30;;;25.10;47.40;;;;;;4943049;28;20202;-78
2021/03/31 12:17:40;;;;;;;11.40;4.53;;;25.20;47.20;;;;;;4940746;28;20193;-79
2021/03/31 12:20:15;;;;;;;10.43;4.20;;;25.20;47.30;;;;;;4941878;28;20229;-78
2021/03/31 12:22:42;;;;;;;7.57;4.40;;;25.20;47.00;;;;;;4940460;28;20201;-78
2021/03/31 12:25:12;;;;;;;8.00;3.70;;;25.30;47.10;;;;;;4941786;28;20233;-79
2021/03/31 12:27:40;;;;;;;6.10;4.20;;;25.30;47.80;;;;;;4940433;28;20205;-79
2021/03/31 12:30:10;;;;;;;7.67;4.17;;;25.40;47.30;;;;;;4956728;28;20205;-77
2021/03/31 12:32:36;;;;;;;11.67;4.27;;;25.40;47.30;;;;;;4941722;28;20206;-79
2021/03/31 12:35:04;;;;;;;9.17;4.23;;;25.40;45.20;;;;;;4940907;28;20208;-78
2021/03/31 12:37:31;;;;;;;30.97;5.70;;;25.50;45.70;;;;;;4938057;28;20209;-79
2021/03/31 12:39:57;;;;;;;22.03;5.80;;;25.60;46.40;;;;;;4940658;28;20213;-79
2021/03/31 12:42:24;;;;;;;22.57;6.30;;;25.80;47.50;;;;;;4940686;28;20209;-79
2021/03/31 12:44:51;;;;;;;17.40;5.97;;;25.80;47.80;;;;;;4938900;28;20540;-79
2021/03/31 12:47:19;;;;;;;14.03;5.83;;;25.70;48.00;;;;;;4940737;28;20582;-80
2021/03/31 12:49:48;;;;;;;14.93;4.90;;;25.70;47.60;;;;;;4932716;28;20202;-81
2021/03/31 12:52:19;;;;;;;10.30;4.43;;;25.50;46.20;;;;;;4941360;28;20281;-79
2021/03/31 12:54:55;;;;;;;8.87;4.57;;;25.60;46.30;;;;;;4932313;28;20213;-79
2021/03/31 12:57:23;;;;;;;6.83;4.33;;;25.60;45.70;;;;;;4937293;28;20619;-80
2021/03/31 12:59:51;;;;;;;9.60;4.73;;;25.70;45.20;;;;;;4941247;28;20704;-82
2021/03/31 13:02:37;;;;;;;11.37;4.13;;;25.70;45.00;;;;;;4940358;28;20198;-80
2021/03/31 13:05:04;;;;;;;6.93;4.57;;;25.70;45.40;;;;;;4941002;28;20222;-80
2021/03/31 13:07:31;;;;;;;11.37;3.80;;;25.80;45.50;;;;;;4938424;28;20238;-80
2021/03/31 13:10:18;;;;;;;6.23;3.67;;;25.80;45.80;;;;;;4941019;28;20209;-81
2021/03/31 13:13:10;;;;;;;5.63;4.70;;;25.80;45.50;;;;;;4940176;28;20794;-79
2021/03/31 13:16:58;;;;;;;8.27;4.30;;;25.80;42.80;;;;;;4940653;28;20690;-79
2021/03/31 13:22:45;;;;;;;6.07;4.70;;;25.90;42.30;;;;;;4943397;29;20209;-80
2021/03/31 13:28:20;;;;;;;8.27;4.33;;;25.90;39.60;;;;;;4930957;28;20206;-80
2021/03/31 13:31:01;;;;;;;7.83;4.47;;;25.90;42.90;;;;;;4944199;28;20229;-80